sensor_id;sensor_type;location;lat;lon;timestamp;P1;durP1;ratioP1;P2;durP2;ratioP2
27127;SDS011;14660;49.008;8.390;2023-01-23T00:01:24;12.73;;;9.15;;
27127;SDS011;14660;49.008;8.390;2023-01-23T00:03:53;17.45;;;9.93;;
27127;SDS011;14660;49.008;8.390;2023-01-23T00:06:21;20.30;;;10.50;;
27127;SDS011;14660;49.008;8.390;2023-01-23T00:08:47;17.92;;;10.25;;
27127;SDS011;14660;49.008;8.390;2023-01-23T00:11:17;15.65;;;9.05;;
27127;SDS011;14660;49.008;8.390;2023-01-23T00:13:46;16.88;;;9.55;;
27127;SDS011;14660;49.008;8.390;2023-01-23T00:16:17;14.93;;;10.15;;
27127;SDS011;14660;49.008;8.390;2023-01-23T00:18:47;14.23;;;9.95;;
27127;SDS011;14660;49.008;8.390;2023-01-23T00:21:23;16.45;;;9.60;;
27127;SDS011;14660;49.008;8.390;2023-01-23T00:23:52;17.40;;;10.13;;
27127;SDS011;14660;49.008;8.390;2023-01-23T00:26:22;16.35;;;9.88;;
27127;SDS011;14660;49.008;8.390;2023-01-23T00:28:54;15.23;;;9.45;;
27127;SDS011;14660;49.008;8.390;2023-01-23T00:31:22;18.60;;;10.85;;
27127;SDS011;14660;49.008;8.390;2023-01-23T00:33:58;15.48;;;9.45;;
27127;SDS011;14660;49.008;8.390;2023-01-23T00:36:31;15.45;;;10.07;;
27127;SDS011;14660;49.008;8.390;2023-01-23T00:39:01;16.27;;;9.52;;
27127;SDS011;14660;49.008;8.390;2023-01-23T00:41:36;15.30;;;9.32;;
27127;SDS011;14660;49.008;8.390;2023-01-23T00:44:03;18.63;;;10.68;;
27127;SDS011;14660;49.008;8.390;2023-01-23T00:46:30;15.95;;;10.30;;
27127;SDS011;14660;49.008;8.390;2023-01-23T00:48:57;17.95;;;10.93;;
27127;SDS011;14660;49.008;8.390;2023-01-23T00:51:24;21.35;;;11.00;;
27127;SDS011;14660;49.008;8.390;2023-01-23T00:53:51;18.27;;;10.27;;
27127;SDS011;14660;49.008;8.390;2023-01-23T00:56:18;17.23;;;9.75;;
27127;SDS011;14660;49.008;8.390;2023-01-23T00:58:44;19.67;;;11.32;;
27127;SDS011;14660;49.008;8.390;2023-01-23T01:01:12;15.05;;;10.60;;
27127;SDS011;14660;49.008;8.390;2023-01-23T01:03:40;18.77;;;10.57;;
27127;SDS011;14660;49.008;8.390;2023-01-23T01:06:08;16.90;;;9.75;;
27127;SDS011;14660;49.008;8.390;2023-01-23T01:08:34;16.45;;;10.40;;
27127;SDS011;14660;49.008;8.390;2023-01-23T01:11:02;18.63;;;10.32;;
27127;SDS011;14660;49.008;8.390;2023-01-23T01:13:29;18.30;;;10.18;;
27127;SDS011;14660;49.008;8.390;2023-01-23T01:15:56;20.33;;;11.48;;
27127;SDS011;14660;49.008;8.390;2023-01-23T01:18:23;18.38;;;11.02;;
27127;SDS011;14660;49.008;8.390;2023-01-23T01:20:49;15.70;;;10.38;;
27127;SDS011;14660;49.008;8.390;2023-01-23T01:23:16;17.52;;;10.52;;
27127;SDS011;14660;49.008;8.390;2023-01-23T01:25:43;17.00;;;10.63;;
27127;SDS011;14660;49.008;8.390;2023-01-23T01:28:11;18.33;;;11.25;;
27127;SDS011;14660;49.008;8.390;2023-01-23T01:30:38;17.27;;;10.27;;
27127;SDS011;14660;49.008;8.390;2023-01-23T01:33:06;21.63;;;13.55;;
27127;SDS011;14660;49.008;8.390;2023-01-23T01:35:33;18.73;;;11.10;;
27127;SDS011;14660;49.008;8.390;2023-01-23T01:38:00;16.92;;;10.13;;
27127;SDS011;14660;49.008;8.390;2023-01-23T01:40:28;17.60;;;10.60;;
27127;SDS011;14660;49.008;8.390;2023-01-23T01:43:00;17.67;;;10.32;;
27127;SDS011;14660;49.008;8.390;2023-01-23T01:52:04;18.20;;;10.48;;
27127;SDS011;14660;49.008;8.390;2023-01-23T01:57:45;19.15;;;10.70;;
27127;SDS011;14660;49.008;8.390;2023-01-23T02:00:16;16.88;;;9.98;;
27127;SDS011;14660;49.008;8.390;2023-01-23T02:02:57;15.18;;;8.93;;
27127;SDS011;14660;49.008;8.390;2023-01-23T02:05:27;15.27;;;9.32;;
27127;SDS011;14660;49.008;8.390;2023-01-23T02:11:05;19.05;;;10.57;;
27127;SDS011;14660;49.008;8.390;2023-01-23T02:13:34;16.65;;;9.25;;
27127;SDS011;14660;49.008;8.390;2023-01-23T02:16:05;17.20;;;10.00;;
27127;SDS011;14660;49.008;8.390;2023-01-23T02:18:36;18.13;;;10.98;;
27127;SDS011;14660;49.008;8.390;2023-01-23T02:21:09;19.30;;;9.82;;
27127;SDS011;14660;49.008;8.390;2023-01-23T02:26:41;16.67;;;9.10;;
27127;SDS011;14660;49.008;8.390;2023-01-23T02:29:10;16.42;;;9.60;;
27127;SDS011;14660;49.008;8.390;2023-01-23T02:31:46;13.90;;;10.35;;
27127;SDS011;14660;49.008;8.390;2023-01-23T02:34:16;14.18;;;8.88;;
27127;SDS011;14660;49.008;8.390;2023-01-23T02:36:44;17.40;;;9.48;;
27127;SDS011;14660;49.008;8.390;2023-01-23T02:39:18;15.63;;;9.73;;
27127;SDS011;14660;49.008;8.390;2023-01-23T02:41:48;17.90;;;9.00;;
27127;SDS011;14660;49.008;8.390;2023-01-23T02:47:03;14.80;;;8.55;;
27127;SDS011;14660;49.008;8.390;2023-01-23T02:49:32;17.05;;;8.63;;
27127;SDS011;14660;49.008;8.390;2023-01-23T02:51:59;14.88;;;9.30;;
27127;SDS011;14660;49.008;8.390;2023-01-23T02:54:26;16.27;;;10.05;;
27127;SDS011;14660;49.008;8.390;2023-01-23T02:56:53;16.50;;;9.63;;
27127;SDS011;14660;49.008;8.390;2023-01-23T02:59:20;17.23;;;9.93;;
27127;SDS011;14660;49.008;8.390;2023-01-23T03:02:13;20.45;;;10.00;;
27127;SDS011;14660;49.008;8.390;2023-01-23T03:04:41;19.70;;;9.25;;
27127;SDS011;14660;49.008;8.390;2023-01-23T03:07:08;17.95;;;9.90;;
27127;SDS011;14660;49.008;8.390;2023-01-23T03:09:34;16.33;;;9.05;;
27127;SDS011;14660;49.008;8.390;2023-01-23T03:12:02;17.55;;;10.20;;
27127;SDS011;14660;49.008;8.390;2023-01-23T03:14:28;17.40;;;9.43;;
27127;SDS011;14660;49.008;8.390;2023-01-23T03:16:57;14.30;;;8.07;;
27127;SDS011;14660;49.008;8.390;2023-01-23T03:19:24;12.60;;;8.45;;
27127;SDS011;14660;49.008;8.390;2023-01-23T03:21:52;18.13;;;9.75;;
27127;SDS011;14660;49.008;8.390;2023-01-23T03:24:21;17.08;;;8.85;;
27127;SDS011;14660;49.008;8.390;2023-01-23T03:26:48;18.73;;;9.60;;
27127;SDS011;14660;49.008;8.390;2023-01-23T03:29:23;15.95;;;9.30;;
27127;SDS011;14660;49.008;8.390;2023-01-23T03:32:11;16.75;;;9.02;;
27127;SDS011;14660;49.008;8.390;2023-01-23T03:34:39;16.33;;;8.68;;
27127;SDS011;14660;49.008;8.390;2023-01-23T03:37:06;17.58;;;9.88;;
27127;SDS011;14660;49.008;8.390;2023-01-23T03:39:37;14.45;;;9.40;;
27127;SDS011;14660;49.008;8.390;2023-01-23T03:42:22;19.67;;;8.77;;
27127;SDS011;14660;49.008;8.390;2023-01-23T03:44:48;14.63;;;7.88;;
27127;SDS011;14660;49.008;8.390;2023-01-23T03:47:17;14.95;;;8.63;;
27127;SDS011;14660;49.008;8.390;2023-01-23T03:49:42;14.52;;;8.75;;
27127;SDS011;14660;49.008;8.390;2023-01-23T03:52:10;13.85;;;8.57;;
27127;SDS011;14660;49.008;8.390;2023-01-23T03:54:39;13.70;;;8.15;;
27127;SDS011;14660;49.008;8.390;2023-01-23T03:57:07;15.98;;;7.90;;
27127;SDS011;14660;49.008;8.390;2023-01-23T03:59:34;13.98;;;8.10;;
27127;SDS011;14660;49.008;8.390;2023-01-23T04:02:01;14.45;;;8.38;;
27127;SDS011;14660;49.008;8.390;2023-01-23T04:04:30;18.23;;;9.63;;
27127;SDS011;14660;49.008;8.390;2023-01-23T04:06:58;15.00;;;8.15;;
27127;SDS011;14660;49.008;8.390;2023-01-23T04:09:24;16.52;;;8.38;;
27127;SDS011;14660;49.008;8.390;2023-01-23T04:11:57;14.90;;;8.43;;
27127;SDS011;14660;49.008;8.390;2023-01-23T04:14:24;17.13;;;8.75;;
27127;SDS011;14660;49.008;8.390;2023-01-23T04:16:55;12.32;;;7.68;;
27127;SDS011;14660;49.008;8.390;2023-01-23T04:19:22;14.63;;;8.82;;
27127;SDS011;14660;49.008;8.390;2023-01-23T04:21:49;16.02;;;8.30;;
27127;SDS011;14660;49.008;8.390;2023-01-23T04:24:16;11.95;;;8.18;;
27127;SDS011;14660;49.008;8.390;2023-01-23T04:26:43;15.43;;;8.20;;
27127;SDS011;14660;49.008;8.390;2023-01-23T04:29:10;15.00;;;7.68;;
27127;SDS011;14660;49.008;8.390;2023-01-23T04:31:37;15.13;;;8.90;;
27127;SDS011;14660;49.008;8.390;2023-01-23T04:34:03;13.63;;;8.20;;
27127;SDS011;14660;49.008;8.390;2023-01-23T04:36:31;16.73;;;8.75;;
27127;SDS011;14660;49.008;8.390;2023-01-23T04:38:58;15.90;;;7.65;;
27127;SDS011;14660;49.008;8.390;2023-01-23T04:41:26;13.27;;;8.52;;
27127;SDS011;14660;49.008;8.390;2023-01-23T04:43:54;17.38;;;10.30;;
27127;SDS011;14660;49.008;8.390;2023-01-23T04:46:22;13.82;;;7.65;;
27127;SDS011;14660;49.008;8.390;2023-01-23T04:48:49;16.65;;;8.52;;
27127;SDS011;14660;49.008;8.390;2023-01-23T04:51:16;16.00;;;8.65;;
27127;SDS011;14660;49.008;8.390;2023-01-23T04:53:43;13.43;;;7.95;;
27127;SDS011;14660;49.008;8.390;2023-01-23T04:56:10;15.77;;;8.18;;
27127;SDS011;14660;49.008;8.390;2023-01-23T04:58:39;14.80;;;7.40;;
27127;SDS011;14660;49.008;8.390;2023-01-23T05:01:08;15.70;;;7.40;;
27127;SDS011;14660;49.008;8.390;2023-01-23T05:03:35;15.38;;;9.43;;
27127;SDS011;14660;49.008;8.390;2023-01-23T05:06:01;18.33;;;8.05;;
27127;SDS011;14660;49.008;8.390;2023-01-23T05:08:28;16.80;;;8.82;;
27127;SDS011;14660;49.008;8.390;2023-01-23T05:10:55;15.48;;;8.60;;
27127;SDS011;14660;49.008;8.390;2023-01-23T05:13:23;14.60;;;8.32;;
27127;SDS011;14660;49.008;8.390;2023-01-23T05:15:49;13.98;;;7.28;;
27127;SDS011;14660;49.008;8.390;2023-01-23T05:18:18;19.60;;;8.10;;
27127;SDS011;14660;49.008;8.390;2023-01-23T05:20:44;15.50;;;7.55;;
27127;SDS011;14660;49.008;8.390;2023-01-23T05:23:11;14.48;;;8.52;;
27127;SDS011;14660;49.008;8.390;2023-01-23T05:25:38;14.82;;;7.45;;
27127;SDS011;14660;49.008;8.390;2023-01-23T05:28:05;14.85;;;8.55;;
27127;SDS011;14660;49.008;8.390;2023-01-23T05:30:32;14.48;;;8.57;;
27127;SDS011;14660;49.008;8.390;2023-01-23T05:32:59;15.68;;;7.95;;
27127;SDS011;14660;49.008;8.390;2023-01-23T05:35:24;16.00;;;7.95;;
27127;SDS011;14660;49.008;8.390;2023-01-23T05:37:52;15.57;;;8.23;;
27127;SDS011;14660;49.008;8.390;2023-01-23T05:40:19;17.23;;;8.00;;
27127;SDS011;14660;49.008;8.390;2023-01-23T05:42:47;14.38;;;8.10;;
27127;SDS011;14660;49.008;8.390;2023-01-23T05:45:14;15.45;;;9.57;;
27127;SDS011;14660;49.008;8.390;2023-01-23T05:47:41;16.92;;;8.85;;
27127;SDS011;14660;49.008;8.390;2023-01-23T05:50:08;13.38;;;7.30;;
27127;SDS011;14660;49.008;8.390;2023-01-23T05:52:43;16.45;;;7.95;;
27127;SDS011;14660;49.008;8.390;2023-01-23T05:55:10;13.00;;;6.97;;
27127;SDS011;14660;49.008;8.390;2023-01-23T05:57:40;16.27;;;7.57;;
27127;SDS011;14660;49.008;8.390;2023-01-23T06:00:09;16.27;;;8.75;;
27127;SDS011;14660;49.008;8.390;2023-01-23T06:02:38;13.18;;;7.50;;
27127;SDS011;14660;49.008;8.390;2023-01-23T06:05:05;15.52;;;8.18;;
27127;SDS011;14660;49.008;8.390;2023-01-23T06:07:32;16.77;;;8.25;;
27127;SDS011;14660;49.008;8.390;2023-01-23T06:09:59;14.95;;;8.93;;
27127;SDS011;14660;49.008;8.390;2023-01-23T06:12:25;16.27;;;7.25;;
27127;SDS011;14660;49.008;8.390;2023-01-23T06:14:52;14.30;;;7.57;;
27127;SDS011;14660;49.008;8.390;2023-01-23T06:17:19;13.75;;;7.68;;
27127;SDS011;14660;49.008;8.390;2023-01-23T06:19:46;18.85;;;8.18;;
27127;SDS011;14660;49.008;8.390;2023-01-23T06:22:15;15.57;;;8.07;;
27127;SDS011;14660;49.008;8.390;2023-01-23T06:24:41;17.50;;;9.63;;
27127;SDS011;14660;49.008;8.390;2023-01-23T06:27:08;13.13;;;6.95;;
27127;SDS011;14660;49.008;8.390;2023-01-23T06:29:35;12.38;;;7.72;;
27127;SDS011;14660;49.008;8.390;2023-01-23T06:32:04;19.88;;;8.65;;
27127;SDS011;14660;49.008;8.390;2023-01-23T06:34:31;15.68;;;7.60;;
27127;SDS011;14660;49.008;8.390;2023-01-23T06:36:58;17.17;;;8.00;;
27127;SDS011;14660;49.008;8.390;2023-01-23T06:39:24;15.05;;;7.60;;
27127;SDS011;14660;49.008;8.390;2023-01-23T06:41:52;12.85;;;7.60;;
27127;SDS011;14660;49.008;8.390;2023-01-23T06:44:18;16.13;;;7.40;;
27127;SDS011;14660;49.008;8.390;2023-01-23T06:46:45;15.38;;;7.63;;
27127;SDS011;14660;49.008;8.390;2023-01-23T06:49:12;16.40;;;8.88;;
27127;SDS011;14660;49.008;8.390;2023-01-23T06:51:38;15.05;;;8.35;;
27127;SDS011;14660;49.008;8.390;2023-01-23T06:54:05;15.95;;;7.70;;
27127;SDS011;14660;49.008;8.390;2023-01-23T06:56:32;14.68;;;8.60;;
27127;SDS011;14660;49.008;8.390;2023-01-23T06:58:59;14.32;;;7.88;;
27127;SDS011;14660;49.008;8.390;2023-01-23T07:01:26;12.75;;;7.25;;
27127;SDS011;14660;49.008;8.390;2023-01-23T07:03:54;13.18;;;8.00;;
27127;SDS011;14660;49.008;8.390;2023-01-23T07:06:21;14.23;;;8.23;;
27127;SDS011;14660;49.008;8.390;2023-01-23T07:08:48;16.15;;;7.85;;
27127;SDS011;14660;49.008;8.390;2023-01-23T07:11:15;14.45;;;7.60;;
27127;SDS011;14660;49.008;8.390;2023-01-23T07:13:42;14.38;;;8.25;;
27127;SDS011;14660;49.008;8.390;2023-01-23T07:16:09;13.85;;;7.32;;
27127;SDS011;14660;49.008;8.390;2023-01-23T07:18:36;15.10;;;7.18;;
27127;SDS011;14660;49.008;8.390;2023-01-23T07:21:06;17.38;;;7.80;;
27127;SDS011;14660;49.008;8.390;2023-01-23T07:23:33;19.52;;;8.43;;
27127;SDS011;14660;49.008;8.390;2023-01-23T07:26:01;19.27;;;8.82;;
27127;SDS011;14660;49.008;8.390;2023-01-23T07:28:29;15.82;;;6.97;;
27127;SDS011;14660;49.008;8.390;2023-01-23T07:30:56;15.98;;;8.77;;
27127;SDS011;14660;49.008;8.390;2023-01-23T07:33:23;20.95;;;8.15;;
27127;SDS011;14660;49.008;8.390;2023-01-23T07:35:50;16.33;;;7.90;;
27127;SDS011;14660;49.008;8.390;2023-01-23T07:38:17;17.98;;;8.15;;
27127;SDS011;14660;49.008;8.390;2023-01-23T07:40:43;16.20;;;8.60;;
27127;SDS011;14660;49.008;8.390;2023-01-23T07:43:11;18.08;;;9.02;;
27127;SDS011;14660;49.008;8.390;2023-01-23T07:45:39;11.90;;;6.93;;
27127;SDS011;14660;49.008;8.390;2023-01-23T07:48:06;16.45;;;7.57;;
27127;SDS011;14660;49.008;8.390;2023-01-23T07:50:33;20.08;;;9.25;;
27127;SDS011;14660;49.008;8.390;2023-01-23T07:53:00;14.93;;;7.93;;
27127;SDS011;14660;49.008;8.390;2023-01-23T07:55:28;18.17;;;8.23;;
27127;SDS011;14660;49.008;8.390;2023-01-23T07:57:55;20.38;;;8.70;;
27127;SDS011;14660;49.008;8.390;2023-01-23T08:00:22;18.88;;;9.57;;
27127;SDS011;14660;49.008;8.390;2023-01-23T08:02:49;18.42;;;9.75;;
27127;SDS011;14660;49.008;8.390;2023-01-23T08:05:18;16.48;;;8.38;;
27127;SDS011;14660;49.008;8.390;2023-01-23T08:07:46;14.02;;;7.57;;
27127;SDS011;14660;49.008;8.390;2023-01-23T08:10:13;12.57;;;6.72;;
27127;SDS011;14660;49.008;8.390;2023-01-23T08:12:38;14.30;;;7.93;;
27127;SDS011;14660;49.008;8.390;2023-01-23T08:15:04;16.23;;;8.25;;
27127;SDS011;14660;49.008;8.390;2023-01-23T08:17:33;14.75;;;8.18;;
27127;SDS011;14660;49.008;8.390;2023-01-23T08:19:59;16.35;;;8.38;;
27127;SDS011;14660;49.008;8.390;2023-01-23T08:22:26;14.35;;;8.18;;
27127;SDS011;14660;49.008;8.390;2023-01-23T08:24:53;15.68;;;9.48;;
27127;SDS011;14660;49.008;8.390;2023-01-23T08:27:20;12.68;;;8.13;;
27127;SDS011;14660;49.008;8.390;2023-01-23T08:29:47;19.50;;;9.85;;
27127;SDS011;14660;49.008;8.390;2023-01-23T08:32:15;14.60;;;7.93;;
27127;SDS011;14660;49.008;8.390;2023-01-23T08:34:42;14.60;;;8.05;;
27127;SDS011;14660;49.008;8.390;2023-01-23T08:37:10;16.63;;;8.70;;
27127;SDS011;14660;49.008;8.390;2023-01-23T08:39:36;19.60;;;9.32;;
27127;SDS011;14660;49.008;8.390;2023-01-23T08:42:03;16.30;;;8.45;;
27127;SDS011;14660;49.008;8.390;2023-01-23T08:44:30;16.10;;;9.27;;
27127;SDS011;14660;49.008;8.390;2023-01-23T08:47:02;17.05;;;8.20;;
27127;SDS011;14660;49.008;8.390;2023-01-23T08:49:30;18.13;;;9.52;;
27127;SDS011;14660;49.008;8.390;2023-01-23T08:51:56;20.52;;;11.25;;
27127;SDS011;14660;49.008;8.390;2023-01-23T08:54:25;17.05;;;9.45;;
27127;SDS011;14660;49.008;8.390;2023-01-23T08:56:54;19.75;;;9.38;;
27127;SDS011;14660;49.008;8.390;2023-01-23T08:59:20;19.67;;;9.90;;
27127;SDS011;14660;49.008;8.390;2023-01-23T09:01:47;22.20;;;10.07;;
27127;SDS011;14660;49.008;8.390;2023-01-23T09:04:15;17.23;;;8.43;;
27127;SDS011;14660;49.008;8.390;2023-01-23T09:06:42;21.65;;;9.45;;
27127;SDS011;14660;49.008;8.390;2023-01-23T09:09:09;21.95;;;9.30;;
27127;SDS011;14660;49.008;8.390;2023-01-23T09:11:36;21.38;;;9.90;;
27127;SDS011;14660;49.008;8.390;2023-01-23T09:14:02;20.13;;;9.50;;
27127;SDS011;14660;49.008;8.390;2023-01-23T09:16:28;18.60;;;9.30;;
27127;SDS011;14660;49.008;8.390;2023-01-23T09:18:55;20.17;;;9.07;;
27127;SDS011;14660;49.008;8.390;2023-01-23T09:21:22;17.17;;;9.52;;
27127;SDS011;14660;49.008;8.390;2023-01-23T09:23:49;20.77;;;9.70;;
27127;SDS011;14660;49.008;8.390;2023-01-23T09:26:16;20.50;;;11.00;;
27127;SDS011;14660;49.008;8.390;2023-01-23T09:28:43;17.13;;;8.70;;
27127;SDS011;14660;49.008;8.390;2023-01-23T09:31:11;19.98;;;9.50;;
27127;SDS011;14660;49.008;8.390;2023-01-23T09:33:39;18.25;;;10.23;;
27127;SDS011;14660;49.008;8.390;2023-01-23T09:36:07;19.45;;;9.90;;
27127;SDS011;14660;49.008;8.390;2023-01-23T09:38:34;21.33;;;11.25;;
27127;SDS011;14660;49.008;8.390;2023-01-23T09:41:13;18.90;;;9.85;;
27127;SDS011;14660;49.008;8.390;2023-01-23T09:44:04;22.98;;;9.73;;
27127;SDS011;14660;49.008;8.390;2023-01-23T09:46:49;21.65;;;10.70;;
27127;SDS011;14660;49.008;8.390;2023-01-23T09:52:25;20.80;;;9.88;;
27127;SDS011;14660;49.008;8.390;2023-01-23T09:55:00;25.73;;;10.75;;
27127;SDS011;14660;49.008;8.390;2023-01-23T09:57:41;25.58;;;11.43;;
27127;SDS011;14660;49.008;8.390;2023-01-23T10:00:24;19.10;;;9.40;;
27127;SDS011;14660;49.008;8.390;2023-01-23T10:03:02;19.13;;;10.77;;
27127;SDS011;14660;49.008;8.390;2023-01-23T10:11:49;18.00;;;10.25;;
27127;SDS011;14660;49.008;8.390;2023-01-23T10:14:47;24.58;;;11.52;;
27127;SDS011;14660;49.008;8.390;2023-01-23T10:26:22;23.10;;;11.50;;
27127;SDS011;14660;49.008;8.390;2023-01-23T10:28:53;17.23;;;8.32;;
27127;SDS011;14660;49.008;8.390;2023-01-23T10:31:37;15.57;;;9.60;;
27127;SDS011;14660;49.008;8.390;2023-01-23T10:39:53;18.92;;;9.32;;
27127;SDS011;14660;49.008;8.390;2023-01-23T10:42:25;13.23;;;7.75;;
27127;SDS011;14660;49.008;8.390;2023-01-23T10:44:57;16.17;;;8.65;;
27127;SDS011;14660;49.008;8.390;2023-01-23T10:50:10;18.10;;;8.32;;
27127;SDS011;14660;49.008;8.390;2023-01-23T10:52:37;15.50;;;7.22;;
27127;SDS011;14660;49.008;8.390;2023-01-23T10:55:29;16.38;;;8.45;;
27127;SDS011;14660;49.008;8.390;2023-01-23T10:57:57;17.17;;;8.70;;
27127;SDS011;14660;49.008;8.390;2023-01-23T11:06:04;14.07;;;8.32;;
27127;SDS011;14660;49.008;8.390;2023-01-23T11:08:36;14.88;;;7.85;;
27127;SDS011;14660;49.008;8.390;2023-01-23T11:14:03;16.50;;;9.10;;
27127;SDS011;14660;49.008;8.390;2023-01-23T11:17:13;17.08;;;8.13;;
27127;SDS011;14660;49.008;8.390;2023-01-23T11:42:32;12.38;;;8.77;;
27127;SDS011;14660;49.008;8.390;2023-01-23T11:45:10;15.07;;;7.67;;
27127;SDS011;14660;49.008;8.390;2023-01-23T11:48:07;16.95;;;7.50;;
27127;SDS011;14660;49.008;8.390;2023-01-23T12:45:35;14.77;;;7.93;;
27127;SDS011;14660;49.008;8.390;2023-01-23T12:48:21;13.63;;;7.80;;
27127;SDS011;14660;49.008;8.390;2023-01-23T12:50:55;15.13;;;7.13;;
27127;SDS011;14660;49.008;8.390;2023-01-23T12:53:29;16.35;;;7.65;;
27127;SDS011;14660;49.008;8.390;2023-01-23T13:05:11;21.58;;;8.70;;
27127;SDS011;14660;49.008;8.390;2023-01-23T13:16:55;16.00;;;8.32;;
27127;SDS011;14660;49.008;8.390;2023-01-23T13:19:30;16.73;;;7.25;;
27127;SDS011;14660;49.008;8.390;2023-01-23T13:22:29;17.02;;;8.32;;
27127;SDS011;14660;49.008;8.390;2023-01-23T13:27:54;17.30;;;9.27;;
27127;SDS011;14660;49.008;8.390;2023-01-23T13:35:56;15.00;;;7.55;;
27127;SDS011;14660;49.008;8.390;2023-01-23T13:52:55;12.90;;;7.43;;
27127;SDS011;14660;49.008;8.390;2023-01-23T13:55:43;15.52;;;7.35;;
27127;SDS011;14660;49.008;8.390;2023-01-23T13:58:30;13.52;;;8.05;;
27127;SDS011;14660;49.008;8.390;2023-01-23T14:01:14;13.43;;;7.47;;
27127;SDS011;14660;49.008;8.390;2023-01-23T14:04:11;13.32;;;6.80;;
27127;SDS011;14660;49.008;8.390;2023-01-23T14:13:15;11.98;;;6.90;;
27127;SDS011;14660;49.008;8.390;2023-01-23T14:15:45;14.23;;;7.53;;
27127;SDS011;14660;49.008;8.390;2023-01-23T14:18:45;15.20;;;7.88;;
27127;SDS011;14660;49.008;8.390;2023-01-23T14:24:19;14.15;;;6.78;;
27127;SDS011;14660;49.008;8.390;2023-01-23T14:26:53;15.02;;;6.90;;
27127;SDS011;14660;49.008;8.390;2023-01-23T14:29:26;12.52;;;7.32;;
27127;SDS011;14660;49.008;8.390;2023-01-23T14:31:53;12.20;;;6.75;;
27127;SDS011;14660;49.008;8.390;2023-01-23T14:34:21;13.73;;;6.38;;
27127;SDS011;14660;49.008;8.390;2023-01-23T14:39:37;12.07;;;7.28;;
27127;SDS011;14660;49.008;8.390;2023-01-23T14:42:04;11.93;;;6.60;;
27127;SDS011;14660;49.008;8.390;2023-01-23T14:44:49;14.25;;;7.38;;
27127;SDS011;14660;49.008;8.390;2023-01-23T14:47:22;15.43;;;7.05;;
27127;SDS011;14660;49.008;8.390;2023-01-23T14:49:59;16.80;;;7.40;;
27127;SDS011;14660;49.008;8.390;2023-01-23T14:52:27;12.68;;;6.70;;
27127;SDS011;14660;49.008;8.390;2023-01-23T14:54:55;16.55;;;7.15;;
27127;SDS011;14660;49.008;8.390;2023-01-23T14:57:24;15.50;;;7.38;;
27127;SDS011;14660;49.008;8.390;2023-01-23T14:59:56;15.75;;;7.45;;
27127;SDS011;14660;49.008;8.390;2023-01-23T15:10:52;12.35;;;7.35;;
27127;SDS011;14660;49.008;8.390;2023-01-23T15:22:15;15.43;;;8.48;;
27127;SDS011;14660;49.008;8.390;2023-01-23T15:24:55;15.23;;;6.80;;
27127;SDS011;14660;49.008;8.390;2023-01-23T15:27:33;13.15;;;7.05;;
27127;SDS011;14660;49.008;8.390;2023-01-23T15:33:18;11.35;;;6.20;;
27127;SDS011;14660;49.008;8.390;2023-01-23T15:36:05;15.07;;;8.10;;
27127;SDS011;14660;49.008;8.390;2023-01-23T15:38:34;14.02;;;7.45;;
27127;SDS011;14660;49.008;8.390;2023-01-23T15:41:06;13.63;;;6.30;;
27127;SDS011;14660;49.008;8.390;2023-01-23T15:43:36;19.90;;;10.73;;
27127;SDS011;14660;49.008;8.390;2023-01-23T15:46:01;16.45;;;9.07;;
27127;SDS011;14660;49.008;8.390;2023-01-23T15:48:29;17.27;;;9.48;;
27127;SDS011;14660;49.008;8.390;2023-01-23T15:50:56;14.52;;;7.30;;
27127;SDS011;14660;49.008;8.390;2023-01-23T15:53:23;12.55;;;8.25;;
27127;SDS011;14660;49.008;8.390;2023-01-23T15:55:49;12.27;;;7.70;;
27127;SDS011;14660;49.008;8.390;2023-01-23T15:58:16;14.60;;;8.00;;
27127;SDS011;14660;49.008;8.390;2023-01-23T16:00:43;13.68;;;6.63;;
27127;SDS011;14660;49.008;8.390;2023-01-23T16:03:10;13.57;;;7.57;;
27127;SDS011;14660;49.008;8.390;2023-01-23T16:05:39;14.00;;;7.80;;
27127;SDS011;14660;49.008;8.390;2023-01-23T16:08:27;14.82;;;7.43;;
27127;SDS011;14660;49.008;8.390;2023-01-23T16:10:53;11.13;;;7.40;;
27127;SDS011;14660;49.008;8.390;2023-01-23T16:13:20;12.18;;;7.30;;
27127;SDS011;14660;49.008;8.390;2023-01-23T16:15:47;12.73;;;6.60;;
27127;SDS011;14660;49.008;8.390;2023-01-23T16:18:18;12.07;;;6.50;;
27127;SDS011;14660;49.008;8.390;2023-01-23T16:20:49;12.45;;;7.07;;
27127;SDS011;14660;49.008;8.390;2023-01-23T16:26:00;14.50;;;8.40;;
27127;SDS011;14660;49.008;8.390;2023-01-23T16:28:27;20.45;;;9.63;;
27127;SDS011;14660;49.008;8.390;2023-01-23T16:30:57;18.88;;;9.73;;
27127;SDS011;14660;49.008;8.390;2023-01-23T16:33:24;16.73;;;9.30;;
27127;SDS011;14660;49.008;8.390;2023-01-23T16:35:52;13.45;;;7.20;;
27127;SDS011;14660;49.008;8.390;2023-01-23T16:38:23;15.05;;;7.55;;
27127;SDS011;14660;49.008;8.390;2023-01-23T16:40:51;17.65;;;8.63;;
27127;SDS011;14660;49.008;8.390;2023-01-23T16:43:19;14.93;;;8.70;;
27127;SDS011;14660;49.008;8.390;2023-01-23T16:45:46;12.15;;;6.75;;
27127;SDS011;14660;49.008;8.390;2023-01-23T16:48:13;13.77;;;7.63;;
27127;SDS011;14660;49.008;8.390;2023-01-23T16:50:41;11.52;;;6.70;;
27127;SDS011;14660;49.008;8.390;2023-01-23T16:53:18;14.23;;;6.85;;
27127;SDS011;14660;49.008;8.390;2023-01-23T16:56:03;12.95;;;8.32;;
27127;SDS011;14660;49.008;8.390;2023-01-23T16:58:43;14.20;;;7.68;;
27127;SDS011;14660;49.008;8.390;2023-01-23T17:01:14;13.60;;;7.57;;
27127;SDS011;14660;49.008;8.390;2023-01-23T17:03:42;14.75;;;8.15;;
27127;SDS011;14660;49.008;8.390;2023-01-23T17:06:11;17.40;;;9.57;;
27127;SDS011;14660;49.008;8.390;2023-01-23T17:08:41;15.70;;;7.50;;
27127;SDS011;14660;49.008;8.390;2023-01-23T17:11:09;24.33;;;11.25;;
27127;SDS011;14660;49.008;8.390;2023-01-23T17:13:54;19.20;;;10.02;;
27127;SDS011;14660;49.008;8.390;2023-01-23T17:16:24;14.20;;;7.88;;
27127;SDS011;14660;49.008;8.390;2023-01-23T17:18:51;12.80;;;7.60;;
27127;SDS011;14660;49.008;8.390;2023-01-23T17:21:21;15.10;;;7.60;;
27127;SDS011;14660;49.008;8.390;2023-01-23T17:23:49;13.73;;;8.27;;
27127;SDS011;14660;49.008;8.390;2023-01-23T17:26:15;15.43;;;7.75;;
27127;SDS011;14660;49.008;8.390;2023-01-23T17:28:44;13.18;;;8.05;;
27127;SDS011;14660;49.008;8.390;2023-01-23T17:31:16;15.30;;;7.90;;
27127;SDS011;14660;49.008;8.390;2023-01-23T17:33:47;12.68;;;7.03;;
27127;SDS011;14660;49.008;8.390;2023-01-23T17:36:14;13.80;;;7.75;;
27127;SDS011;14660;49.008;8.390;2023-01-23T17:38:42;12.98;;;7.00;;
27127;SDS011;14660;49.008;8.390;2023-01-23T17:41:15;12.27;;;6.75;;
27127;SDS011;14660;49.008;8.390;2023-01-23T17:43:42;14.80;;;7.13;;
27127;SDS011;14660;49.008;8.390;2023-01-23T17:46:14;14.95;;;8.32;;
27127;SDS011;14660;49.008;8.390;2023-01-23T17:48:51;16.48;;;9.25;;
27127;SDS011;14660;49.008;8.390;2023-01-23T17:51:30;13.90;;;8.18;;
27127;SDS011;14660;49.008;8.390;2023-01-23T17:53:59;11.00;;;6.47;;
27127;SDS011;14660;49.008;8.390;2023-01-23T17:56:26;12.00;;;7.30;;
27127;SDS011;14660;49.008;8.390;2023-01-23T17:58:53;14.00;;;7.03;;
27127;SDS011;14660;49.008;8.390;2023-01-23T18:01:22;17.15;;;7.90;;
27127;SDS011;14660;49.008;8.390;2023-01-23T18:03:55;15.00;;;7.40;;
27127;SDS011;14660;49.008;8.390;2023-01-23T18:06:22;13.80;;;7.93;;
27127;SDS011;14660;49.008;8.390;2023-01-23T18:08:49;16.25;;;7.07;;
27127;SDS011;14660;49.008;8.390;2023-01-23T18:11:22;11.43;;;6.47;;
27127;SDS011;14660;49.008;8.390;2023-01-23T18:16:53;12.40;;;6.88;;
27127;SDS011;14660;49.008;8.390;2023-01-23T18:19:24;8.90;;;5.72;;
27127;SDS011;14660;49.008;8.390;2023-01-23T18:21:53;12.75;;;7.03;;